Time;durP1;ratioP1;P1;durP2;ratioP2;P2;SDS_P1;SDS_P2;PMS_P1;PMS_P2;Temp;Humidity;BMP_temperature;BMP_pressure;BME280_temperature;BME280_humidity;BME280_pressure;Samples;Min_cycle;Max_cycle;Signal;HPM_P1;HPM_P2
2020/12/02 00:00:46;;;;;;;;;;;;;;;;;;2108187;28;44875;-62
2020/12/02 00:01:48;;;;;;;;;;;;;;;;;;2108292;28;44862;-62
2020/12/02 00:03:18;;;;;;;;;;;;;;;;;;2108861;28;42839;-62
2020/12/02 00:04:20;;;;;;;;;;;;;;;;;;2098649;28;46059;-62
2020/12/02 00:05:21;;;;;;;;;;;;;;;;;;2106917;28;47303;-62
2020/12/02 00:06:25;;;;;;;;;;;;;;;;;;2106859;28;45729;-62
2020/12/02 00:07:32;;;;;;;;;;;;;;;;;;2106169;28;46179;-62
2020/12/02 00:08:38;;;;;;;;;;;;;;;;;;2106596;28;44576;-61
2020/12/02 00:09:39;;;;;;;;;;;;;;;;;;2107165;28;44890;-61
2020/12/02 00:10:40;;;;;;;;;;;;;;;;;;2107575;28;44562;-61
2020/12/02 00:11:41;;;;;;;;;;;;;;;;;;2106589;28;45262;-61
2020/12/02 00:12:42;;;;;;;;;;;;;;;;;;2106830;28;43778;-61
2020/12/02 00:13:45;;;;;;;;;;;;;;;;;;2107030;28;42861;-61
2020/12/02 00:14:46;;;;;;;;;;;;;;;;;;2107084;28;44120;-61
2020/12/02 00:15:47;;;;;;;;;;;;;;;;;;2106898;28;43153;-61
2020/12/02 00:16:48;;;;;;;;;;;;;;;;;;2106642;28;45503;-61
2020/12/02 00:17:55;;;;;;;;;;;;;;;;;;2106079;28;44486;-61
2020/12/02 00:18:57;;;;;;;;;;;;;;;;;;2107320;28;43013;-61
2020/12/02 00:19:58;;;;;;;;;;;;;;;;;;2107282;28;43257;-61
2020/12/02 00:20:59;;;;;;;;;;;;;;;;;;2107240;28;43006;-61
2020/12/02 00:22:05;;;;;;;;;;;;;;;;;;2106760;28;42858;-61
2020/12/02 00:23:06;;;;;;;;;;;;;;;;;;2107261;28;43781;-61
2020/12/02 00:24:07;;;;;;;;;;;;;;;;;;2107496;28;45538;-61
2020/12/02 00:25:08;;;;;;;;;;;;;;;;;;2107870;28;42963;-61
2020/12/02 00:26:09;;;;;;;;;;;;;;;;;;2108087;28;44466;-61
2020/12/02 00:27:15;;;;;;;;;;;;;;;;;;2108195;28;42843;-61
2020/12/02 00:28:16;;;;;;;;;;;;;;;;;;2107787;28;44396;-61
2020/12/02 00:29:17;;;;;;;;;;;;;;;;;;2107278;28;43045;-61
2020/12/02 00:30:18;;;;;;;;;;;;;;;;;;2106885;28;43196;-61
2020/12/02 00:31:20;;;;;;;;;;;;;;;;;;2107341;28;41498;-60
2020/12/02 00:32:42;;;;;;;;;;;;;;;;;;2107278;28;42005;-61
2020/12/02 00:33:43;;;;;;;;;;;;;;;;;;2106502;28;44313;-61
2020/12/02 00:34:44;;;;;;;;;;;;;;;;;;2107077;28;45597;-61
2020/12/02 00:35:45;;;;;;;;;;;;;;;;;;2106477;28;43989;-61
2020/12/02 00:36:46;;;;;;;;;;;;;;;;;;2098110;28;45307;-61
2020/12/02 00:37:48;;;;;;;;;;;;;;;;;;2106321;28;45589;-61
2020/12/02 00:38:59;;;;;;;;;;;;;;;;;;2106888;28;44529;-61
2020/12/02 00:40:00;;;;;;;;;;;;;;;;;;2106883;28;45397;-62
2020/12/02 00:41:01;;;;;;;;;;;;;;;;;;2106913;28;44015;-61
2020/12/02 00:42:02;;;;;;;;;;;;;;;;;;2107233;28;44106;-61
2020/12/02 00:43:03;;;;;;;;;;;;;;;;;;2106884;28;45562;-61
2020/12/02 00:44:04;;;;;;;;;;;;;;;;;;2106534;28;44356;-61
2020/12/02 00:45:06;;;;;;;;;;;;;;;;;;2106347;28;44282;-61
2020/12/02 00:46:09;;;;;;;;;;;;;;;;;;2106252;28;44068;-61
2020/12/02 00:47:10;;;;;;;;;;;;;;;;;;2106614;28;44279;-61
2020/12/02 00:48:14;;;;;;;;;;;;;;;;;;2106647;28;44091;-61
2020/12/02 00:49:15;;;;;;;;;;;;;;;;;;2106881;28;46104;-61
2020/12/02 00:50:18;;;;;;;;;;;;;;;;;;2106756;28;46352;-61
2020/12/02 00:51:19;;;;;;;;;;;;;;;;;;2106410;28;44108;-61
2020/12/02 00:52:21;;;;;;;;;;;;;;;;;;2107061;28;44294;-61
2020/12/02 00:53:24;;;;;;;;;;;;;;;;;;2106340;28;44367;-61
2020/12/02 00:54:25;;;;;;;;;;;;;;;;;;2106602;28;45202;-61
2020/12/02 00:55:26;;;;;;;;;;;;;;;;;;2106193;28;45856;-61
2020/12/02 00:56:28;;;;;;;;;;;;;;;;;;2107127;28;44837;-61
2020/12/02 00:57:33;;;;;;;;;;;;;;;;;;2106153;28;44773;-61
2020/12/02 00:58:47;;;;;;;;;;;;;;;;;;2106473;28;47234;-61
2020/12/02 00:59:51;;;;;;;;;;;;;;;;;;2106811;28;44738;-61
2020/12/02 01:00:54;;;;;;;;;;;;;;;;;;2106521;28;44708;-61
2020/12/02 01:02:13;;;;;;;;;;;;;;;;;;2106867;28;44729;-60
2020/12/02 01:03:25;;;;;;;;;;;;;;;;;;2106768;28;44520;-61
2020/12/02 01:04:26;;;;;;;;;;;;;;;;;;2106980;28;44871;-61
2020/12/02 01:05:27;;;;;;;;;;;;;;;;;;2106320;28;47175;-61
2020/12/02 01:06:28;;;;;;;;;;;;;;;;;;2106085;28;44558;-61
2020/12/02 01:07:29;;;;;;;;;;;;;;;;;;2106290;28;44871;-61
2020/12/02 01:08:38;;;;;;;;;;;;;;;;;;2105192;28;48341;-61
2020/12/02 01:09:40;;;;;;;;;;;;;;;;;;2105977;28;46940;-61
2020/12/02 01:10:41;;;;;;;;;;;;;;;;;;2105519;28;46229;-61
2020/12/02 01:11:43;;;;;;;;;;;;;;;;;;2105539;28;43526;-61
2020/12/02 01:12:46;;;;;;;;;;;;;;;;;;2106351;28;45876;-61
2020/12/02 01:13:48;;;;;;;;;;;;;;;;;;2105569;28;44658;-61
2020/12/02 01:14:52;;;;;;;;;;;;;;;;;;2105502;28;46122;-61
2020/12/02 01:15:53;;;;;;;;;;;;;;;;;;2106090;28;44570;-62
2020/12/02 01:16:55;;;;;;;;;;;;;;;;;;2106312;28;45758;-62
2020/12/02 01:18:16;;;;;;;;;;;;;;;;;;2106690;28;45700;-61
2020/12/02 01:19:29;;;;;;;;;;;;;;;;;;2106375;28;43175;-62
2020/12/02 01:20:30;;;;;;;;;;;;;;;;;;2106768;28;44448;-61
2020/12/02 01:21:31;;;;;;;;;;;;;;;;;;2106957;28;42978;-61
2020/12/02 01:22:34;;;;;;;;;;;;;;;;;;2106719;28;43328;-61
2020/12/02 01:23:35;;;;;;;;;;;;;;;;;;2106990;28;44569;-61
2020/12/02 01:24:39;;;;;;;;;;;;;;;;;;2106672;28;44370;-61
2020/12/02 01:25:41;;;;;;;;;;;;;;;;;;2107047;28;44362;-60
2020/12/02 01:26:44;;;;;;;;;;;;;;;;;;2105743;28;44237;-61
2020/12/02 01:27:55;;;;;;;;;;;;;;;;;;2106553;28;43237;-60
2020/12/02 01:28:57;;;;;;;;;;;;;;;;;;2106989;28;43294;-61
2020/12/02 01:29:59;;;;;;;;;;;;;;;;;;2106721;28;45430;-62
2020/12/02 01:31:00;;;;;;;;;;;;;;;;;;2107486;28;42866;-61
2020/12/02 01:32:02;;;;;;;;;;;;;;;;;;2107771;28;42843;-61
2020/12/02 01:33:03;;;;;;;;;;;;;;;;;;2107820;28;43161;-61
2020/12/02 01:34:04;;;;;;;;;;;;;;;;;;2108306;28;43134;-61
2020/12/02 01:35:06;;;;;;;;;;;;;;;;;;2107673;28;43170;-60
2020/12/02 01:36:08;;;;;;;;;;;;;;;;;;2099529;28;44466;-61
2020/12/02 01:37:22;;;;;;;;;;;;;;;;;;2107515;28;45523;-60
2020/12/02 01:38:28;;;;;;;;;;;;;;;;;;2108532;28;44612;-61
2020/12/02 01:39:31;;;;;;;;;;;;;;;;;;2107552;28;43283;-60
2020/12/02 01:40:35;;;;;;;;;;;;;;;;;;2109077;28;42475;-61
2020/12/02 01:41:36;;;;;;;;;;;;;;;;;;2108360;28;42951;-61
2020/12/02 01:42:38;;;;;;;;;;;;;;;;;;2108730;28;45584;-61
2020/12/02 01:43:39;;;;;;;;;;;;;;;;;;2107799;28;44293;-61
2020/12/02 01:44:41;;;;;;;;;;;;;;;;;;2108363;28;44272;-61
2020/12/02 01:45:53;;;;;;;;;;;;;;;;;;2107324;28;44165;-60
2020/12/02 01:47:13;;;;;;;;;;;;;;;;;;2107582;28;45374;-61
2020/12/02 01:48:26;;;;;;;;;;;;;;;;;;2106995;28;44069;-61
2020/12/02 01:49:43;;;;;;;;;;;;;;;;;;2107391;28;44369;-61
2020/12/02 01:50:45;;;;;;;;;;;;;;;;;;2108041;28;43504;-61
2020/12/02 01:51:49;;;;;;;;;;;;;;;;;;2107723;28;44248;-61
2020/12/02 01:52:53;;;;;;;;;;;;;;;;;;2108283;28;43549;-61
2020/12/02 01:54:05;;;;;;;;;;;;;;;;;;2107832;28;44281;-61
2020/12/02 01:55:09;;;;;;;;;;;;;;;;;;2108242;28;46486;-61
2020/12/02 01:56:22;;;;;;;;;;;;;;;;;;2107388;28;44247;-61
2020/12/02 01:57:25;;;;;;;;;;;;;;;;;;2107590;28;45374;-61
2020/12/02 01:58:36;;;;;;;;;;;;;;;;;;2107981;28;45574;-61
2020/12/02 01:59:37;;;;;;;;;;;;;;;;;;2107800;28;44291;-61
2020/12/02 02:00:40;;;;;;;;;;;;;;;;;;2107601;28;43979;-61
2020/12/02 02:01:53;;;;;;;;;;;;;;;;;;2108148;28;45646;-60
2020/12/02 02:03:11;;;;;;;;;;;;;;;;;;2108233;28;44159;-60
2020/12/02 02:04:14;;;;;;;;;;;;;;;;;;2108010;28;48917;-61
2020/12/02 02:05:28;;;;;;;;;;;;;;;;;;2108095;28;44959;-60
2020/12/02 02:06:39;;;;;;;;;;;;;;;;;;2107933;28;44842;-60
2020/12/02 02:07:40;;;;;;;;;;;;;;;;;;2108075;28;44985;-61
2020/12/02 02:08:42;;;;;;;;;;;;;;;;;;2108013;28;44873;-60
2020/12/02 02:09:47;;;;;;;;;;;;;;;;;;2107867;28;45898;-61
2020/12/02 02:10:49;;;;;;;;;;;;;;;;;;2107421;28;45744;-60
2020/12/02 02:11:56;;;;;;;;;;;;;;;;;;2107433;28;47187;-60
2020/12/02 02:13:16;;;;;;;;;;;;;;;;;;2107349;28;44541;-60
2020/12/02 02:14:36;;;;;;;;;;;;;;;;;;2107471;28;44874;-61
2020/12/02 02:15:41;;;;;;;;;;;;;;;;;;2107409;28;42967;-61
2020/12/02 02:16:43;;;;;;;;;;;;;;;;;;2107138;28;45923;-61
2020/12/02 02:17:45;;;;;;;;;;;;;;;;;;2107384;28;46103;-61
2020/12/02 02:18:46;;;;;;;;;;;;;;;;;;2107343;28;44580;-61
2020/12/02 02:19:47;;;;;;;;;;;;;;;;;;2107375;28;44765;-61
2020/12/02 02:20:50;;;;;;;;;;;;;;;;;;2106423;28;44447;-61
2020/12/02 02:21:57;;;;;;;;;;;;;;;;;;2106417;28;44619;-61
2020/12/02 02:22:58;;;;;;;;;;;;;;;;;;2106594;28;45906;-61
2020/12/02 02:24:00;;;;;;;;;;;;;;;;;;2106327;28;44441;-61
2020/12/02 02:25:01;;;;;;;;;;;;;;;;;;2107079;28;47117;-61
2020/12/02 02:26:14;;;;;;;;;;;;;;;;;;2106687;28;44756;-61
2020/12/02 02:27:18;;;;;;;;;;;;;;;;;;2106681;28;45065;-60
2020/12/02 02:28:20;;;;;;;;;;;;;;;;;;2107794;28;44722;-61
2020/12/02 02:29:27;;;;;;;;;;;;;;;;;;2107110;28;42878;-61
2020/12/02 02:30:29;;;;;;;;;;;;;;;;;;2107169;28;43702;-61
2020/12/02 02:31:39;;;;;;;;;;;;;;;;;;2106436;28;41220;-60
2020/12/02 02:32:41;;;;;;;;;;;;;;;;;;2106645;28;45270;-61
2020/12/02 02:33:42;;;;;;;;;;;;;;;;;;2107111;28;42971;-61
2020/12/02 02:34:46;;;;;;;;;;;;;;;;;;2107422;28;44480;-60
2020/12/02 02:35:47;;;;;;;;;;;;;;;;;;2107351;28;42852;-61
2020/12/02 02:36:49;;;;;;;;;;;;;;;;;;2107126;28;41966;-61
2020/12/02 02:37:52;;;;;;;;;;;;;;;;;;2107126;28;45546;-61
2020/12/02 02:38:53;;;;;;;;;;;;;;;;;;2106735;28;44489;-60
2020/12/02 02:39:54;;;;;;;;;;;;;;;;;;2106600;28;42952;-61
2020/12/02 02:40:55;;;;;;;;;;;;;;;;;;2106966;28;42782;-60
2020/12/02 02:42:01;;;;;;;;;;;;;;;;;;2107081;28;43136;-60
2020/12/02 02:43:04;;;;;;;;;;;;;;;;;;2106584;28;42780;-61
2020/12/02 02:44:05;;;;;;;;;;;;;;;;;;2106205;28;42984;-62
2020/12/02 02:45:36;;;;;;;;;;;;;;;;;;2098524;28;43144;-62
2020/12/02 02:46:37;;;;;;;;;;;;;;;;;;2097645;28;41378;-62
2020/12/02 02:47:38;;;;;;;;;;;;;;;;;;2106686;28;45670;-62
2020/12/02 02:48:39;;;;;;;;;;;;;;;;;;2106518;28;44612;-61
2020/12/02 02:49:40;;;;;;;;;;;;;;;;;;2107248;28;43000;-61
2020/12/02 02:50:41;;;;;;;;;;;;;;;;;;2107169;28;44492;-61
2020/12/02 02:51:42;;;;;;;;;;;;;;;;;;2107139;28;44287;-61
2020/12/02 02:52:43;;;;;;;;;;;;;;;;;;2107364;28;46452;-61
2020/12/02 02:53:44;;;;;;;;;;;;;;;;;;2107033;28;45270;-61
2020/12/02 02:54:45;;;;;;;;;;;;;;;;;;2107247;28;43993;-62
2020/12/02 02:55:48;;;;;;;;;;;;;;;;;;2107350;28;45294;-61
2020/12/02 02:56:49;;;;;;;;;;;;;;;;;;2107112;28;46400;-62
2020/12/02 02:57:50;;;;;;;;;;;;;;;;;;2107252;28;44089;-62
2020/12/02 02:58:51;;;;;;;;;;;;;;;;;;2106928;28;44320;-62
2020/12/02 02:59:52;;;;;;;;;;;;;;;;;;2109569;28;42744;-62
2020/12/02 03:00:54;;;;;;;;;;;;;;;;;;2108279;28;46880;-62
2020/12/02 03:01:55;;;;;;;;;;;;;;;;;;2108871;28;43992;-62
2020/12/02 03:02:57;;;;;;;;;;;;;;;;;;2108831;28;44165;-61
2020/12/02 03:03:58;;;;;;;;;;;;;;;;;;2108661;28;43991;-62
2020/12/02 03:05:00;;;;;;;;;;;;;;;;;;2108756;28;45317;-62
2020/12/02 03:06:02;;;;;;;;;;;;;;;;;;2109074;28;45410;-62
2020/12/02 03:07:04;;;;;;;;;;;;;;;;;;2108985;28;46770;-62
2020/12/02 03:08:10;;;;;;;;;;;;;;;;;;2108667;28;44221;-61
2020/12/02 03:09:15;;;;;;;;;;;;;;;;;;2102588;28;43387;-62
2020/12/02 03:10:16;;;;;;;;;;;;;;;;;;2102804;28;44085;-62
2020/12/02 03:11:18;;;;;;;;;;;;;;;;;;2111019;28;45815;-62
2020/12/02 03:12:19;;;;;;;;;;;;;;;;;;2113109;28;45663;-61
2020/12/02 03:13:21;;;;;;;;;;;;;;;;;;2112684;28;47226;-61
2020/12/02 03:14:22;;;;;;;;;;;;;;;;;;2113300;28;44377;-61
2020/12/02 03:15:23;;;;;;;;;;;;;;;;;;2113558;28;46533;-62
2020/12/02 03:16:46;;;;;;;;;;;;;;;;;;2115176;28;44568;-61
2020/12/02 03:17:47;;;;;;;;;;;;;;;;;;2115919;28;44545;-61
2020/12/02 03:18:48;;;;;;;;;;;;;;;;;;2116117;28;44547;-60
2020/12/02 03:19:52;;;;;;;;;;;;;;;;;;2117069;28;44639;-61
2020/12/02 03:20:57;;;;;;;;;;;;;;;;;;2116572;28;44512;-61
2020/12/02 03:22:01;;;;;;;;;;;;;;;;;;2117117;28;45187;-59
2020/12/02 03:23:03;;;;;;;;;;;;;;;;;;2116478;28;44866;-60
2020/12/02 03:24:05;;;;;;;;;;;;;;;;;;2116257;28;44845;-61
2020/12/02 03:25:06;;;;;;;;;;;;;;;;;;2116820;28;44848;-62
2020/12/02 03:26:09;;;;;;;;;;;;;;;;;;2116982;28;44758;-61
2020/12/02 03:27:10;;;;;;;;;;;;;;;;;;2115688;28;44566;-61
2020/12/02 03:28:11;;;;;;;;;;;;;;;;;;2113980;28;44775;-61
2020/12/02 03:29:12;;;;;;;;;;;;;;;;;;2113344;28;44414;-61
2020/12/02 03:30:14;;;;;;;;;;;;;;;;;;2112180;28;44439;-61
2020/12/02 03:31:17;;;;;;;;;;;;;;;;;;2111868;28;44630;-61
2020/12/02 03:32:18;;;;;;;;;;;;;;;;;;2110519;28;46033;-61
2020/12/02 03:33:19;;;;;;;;;;;;;;;;;;2109730;28;44563;-61
2020/12/02 03:34:21;;;;;;;;;;;;;;;;;;2108736;28;45210;-61
2020/12/02 03:35:22;;;;;;;;;;;;;;;;;;2108011;28;46067;-62
2020/12/02 03:36:23;;;;;;;;;;;;;;;;;;2107308;28;43159;-62
2020/12/02 03:37:24;;;;;;;;;;;;;;;;;;2106909;28;44487;-60
2020/12/02 03:38:25;;;;;;;;;;;;;;;;;;2098826;28;42987;-61
2020/12/02 03:39:26;;;;;;;;;;;;;;;;;;2107016;28;44350;-61
2020/12/02 03:40:27;;;;;;;;;;;;;;;;;;2106833;28;42961;-62
2020/12/02 03:41:28;;;;;;;;;;;;;;;;;;2106919;28;43292;-61
2020/12/02 03:42:29;;;;;;;;;;;;;;;;;;2106367;28;43284;-62
2020/12/02 03:43:30;;;;;;;;;;;;;;;;;;2106671;28;44311;-61
2020/12/02 03:44:31;;;;;;;;;;;;;;;;;;2106884;28;42241;-61
2020/12/02 03:45:35;;;;;;;;;;;;;;;;;;2106372;28;45202;-61
2020/12/02 03:46:36;;;;;;;;;;;;;;;;;;2106187;28;41538;-62
2020/12/02 03:47:37;;;;;;;;;;;;;;;;;;2106196;28;44363;-61
2020/12/02 03:48:39;;;;;;;;;;;;;;;;;;2106518;28;42761;-61
2020/12/02 03:49:39;;;;;;;;;;;;;;;;;;2106936;28;44230;-61
2020/12/02 03:50:41;;;;;;;;;;;;;;;;;;2106425;28;44147;-61
2020/12/02 03:51:42;;;;;;;;;;;;;;;;;;2098969;28;44543;-61
2020/12/02 03:52:43;;;;;;;;;;;;;;;;;;2097567;28;44698;-61
2020/12/02 03:53:44;;;;;;;;;;;;;;;;;;2100116;28;44378;-61
2020/12/02 03:54:45;;;;;;;;;;;;;;;;;;2099953;28;43292;-61
2020/12/02 03:55:47;;;;;;;;;;;;;;;;;;2100444;28;43112;-61
2020/12/02 03:56:48;;;;;;;;;;;;;;;;;;2100698;28;45137;-61
2020/12/02 03:57:49;;;;;;;;;;;;;;;;;;2100526;28;44146;-61
2020/12/02 03:58:50;;;;;;;;;;;;;;;;;;2100437;28;44262;-61
2020/12/02 03:59:51;;;;;;;;;;;;;;;;;;2100671;28;45371;-61
2020/12/02 04:00:52;;;;;;;;;;;;;;;;;;2099997;28;45280;-62
2020/12/02 04:01:53;;;;;;;;;;;;;;;;;;2099667;28;44301;-62
2020/12/02 04:02:54;;;;;;;;;;;;;;;;;;2097135;28;44980;-63
2020/12/02 04:03:55;;;;;;;;;;;;;;;;;;2097889;28;44336;-62
2020/12/02 04:04:56;;;;;;;;;;;;;;;;;;2098378;28;43100;-62
2020/12/02 04:05:57;;;;;;;;;;;;;;;;;;2098094;28;45763;-62
2020/12/02 04:06:58;;;;;;;;;;;;;;;;;;2097526;28;44314;-62
2020/12/02 04:08:00;;;;;;;;;;;;;;;;;;2097757;28;44380;-62
2020/12/02 04:09:03;;;;;;;;;;;;;;;;;;2097460;28;44231;-62
2020/12/02 04:10:04;;;;;;;;;;;;;;;;;;2097722;28;44403;-62
2020/12/02 04:11:06;;;;;;;;;;;;;;;;;;2098265;28;46342;-62
2020/12/02 04:12:07;;;;;;;;;;;;;;;;;;2097979;28;44074;-62
2020/12/02 04:13:08;;;;;;;;;;;;;;;;;;2098255;28;45675;-62
2020/12/02 04:14:09;;;;;;;;;;;;;;;;;;2098221;28;45584;-62
2020/12/02 04:15:11;;;;;;;;;;;;;;;;;;2097452;28;46475;-62
2020/12/02 04:16:12;;;;;;;;;;;;;;;;;;2097184;28;46602;-62
2020/12/02 04:17:13;;;;;;;;;;;;;;;;;;2098454;28;43949;-62
2020/12/02 04:18:14;;;;;;;;;;;;;;;;;;2098013;28;45418;-62
2020/12/02 04:19:15;;;;;;;;;;;;;;;;;;2097982;28;46135;-62
2020/12/02 04:20:20;;;;;;;;;;;;;;;;;;2097731;28;46786;-63
2020/12/02 04:21:24;;;;;;;;;;;;;;;;;;2097273;28;44714;-62
2020/12/02 04:22:25;;;;;;;;;;;;;;;;;;2097197;28;43202;-63
2020/12/02 04:23:26;;;;;;;;;;;;;;;;;;2097892;28;45826;-63
2020/12/02 04:24:27;;;;;;;;;;;;;;;;;;2097720;28;43213;-62
2020/12/02 04:25:28;;;;;;;;;;;;;;;;;;2097335;28;45748;-62
2020/12/02 04:26:29;;;;;;;;;;;;;;;;;;2097084;28;44623;-62
2020/12/02 04:27:30;;;;;;;;;;;;;;;;;;2098003;28;45875;-63
2020/12/02 04:28:31;;;;;;;;;;;;;;;;;;2097967;28;46154;-62
2020/12/02 04:29:32;;;;;;;;;;;;;;;;;;2098171;28;43514;-62
2020/12/02 04:30:33;;;;;;;;;;;;;;;;;;2097673;28;45829;-62
2020/12/02 04:31:34;;;;;;;;;;;;;;;;;;2097939;28;46175;-63
2020/12/02 04:32:35;;;;;;;;;;;;;;;;;;2097042;28;44762;-63
2020/12/02 04:33:36;;;;;;;;;;;;;;;;;;2097235;28;44857;-63
2020/12/02 04:34:37;;;;;;;;;;;;;;;;;;2097120;28;43554;-62
2020/12/02 04:35:38;;;;;;;;;;;;;;;;;;2097374;28;46190;-62
2020/12/02 04:36:39;;;;;;;;;;;;;;;;;;2097730;28;46205;-62
2020/12/02 04:37:40;;;;;;;;;;;;;;;;;;2098054;28;44558;-63
2020/12/02 04:38:41;;;;;;;;;;;;;;;;;;2097234;28;46032;-63
2020/12/02 04:39:42;;;;;;;;;;;;;;;;;;2097288;28;45712;-63
2020/12/02 04:40:43;;;;;;;;;;;;;;;;;;2097331;28;45667;-63
2020/12/02 04:41:44;;;;;;;;;;;;;;;;;;2088874;28;43150;-63
2020/12/02 04:42:47;;;;;;;;;;;;;;;;;;2097154;28;44257;-64
2020/12/02 04:43:49;;;;;;;;;;;;;;;;;;2097263;28;42414;-64
2020/12/02 04:44:50;;;;;;;;;;;;;;;;;;2097854;28;42291;-64
2020/12/02 04:45:53;;;;;;;;;;;;;;;;;;2098174;28;45425;-64
2020/12/02 04:46:55;;;;;;;;;;;;;;;;;;2097912;28;45501;-64
2020/12/02 04:47:57;;;;;;;;;;;;;;;;;;2098163;28;44467;-63
2020/12/02 04:49:10;;;;;;;;;;;;;;;;;;2097389;28;44359;-63
2020/12/02 04:50:17;;;;;;;;;;;;;;;;;;2097525;28;43485;-63
2020/12/02 04:51:21;;;;;;;;;;;;;;;;;;2098008;28;44287;-63
2020/12/02 04:52:23;;;;;;;;;;;;;;;;;;2098141;28;42920;-63
2020/12/02 04:53:24;;;;;;;;;;;;;;;;;;2097848;28;44170;-63
2020/12/02 04:54:25;;;;;;;;;;;;;;;;;;2098080;28;42971;-63
2020/12/02 04:55:26;;;;;;;;;;;;;;;;;;2097646;28;44333;-63
2020/12/02 04:56:28;;;;;;;;;;;;;;;;;;2098078;28;42997;-63
2020/12/02 04:57:29;;;;;;;;;;;;;;;;;;2097424;28;45484;-63
2020/12/02 04:58:39;;;;;;;;;;;;;;;;;;2097526;28;44491;-63
2020/12/02 04:59:41;;;;;;;;;;;;;;;;;;2098104;28;43175;-63
2020/12/02 05:00:42;;;;;;;;;;;;;;;;;;2097613;28;44469;-63
2020/12/02 05:01:51;;;;;;;;;;;;;;;;;;2097851;28;44289;-63
2020/12/02 05:03:10;;;;;;;;;;;;;;;;;;2098291;28;43284;-63
2020/12/02 05:04:14;;;;;;;;;;;;;;;;;;2098821;28;44402;-63
2020/12/02 05:05:19;;;;;;;;;;;;;;;;;;2098516;28;45725;-63
2020/12/02 05:06:22;;;;;;;;;;;;;;;;;;2098775;28;44418;-63
2020/12/02 05:07:25;;;;;;;;;;;;;;;;;;2099834;28;45338;-63
2020/12/02 05:08:30;;;;;;;;;;;;;;;;;;2099687;28;45799;-64
2020/12/02 05:09:32;;;;;;;;;;;;;;;;;;2099262;28;44097;-63
2020/12/02 05:10:35;;;;;;;;;;;;;;;;;;2099474;28;44121;-63
2020/12/02 05:11:36;;;;;;;;;;;;;;;;;;2099220;28;44284;-63
2020/12/02 05:12:39;;;;;;;;;;;;;;;;;;2099397;28;44398;-63
2020/12/02 05:13:48;;;;;;;;;;;;;;;;;;2099021;28;44089;-63
2020/12/02 05:14:49;;;;;;;;;;;;;;;;;;2098734;28;45338;-63
2020/12/02 05:16:07;;;;;;;;;;;;;;;;;;2098542;28;44177;-63
2020/12/02 05:17:17;;;;;;;;;;;;;;;;;;2099350;28;44326;-63
2020/12/02 05:18:18;;;;;;;;;;;;;;;;;;2099293;28;45133;-63
2020/12/02 05:19:21;;;;;;;;;;;;;;;;;;2099306;28;45592;-64
2020/12/02 05:20:22;;;;;;;;;;;;;;;;;;2099074;28;42574;-64
2020/12/02 05:21:23;;;;;;;;;;;;;;;;;;2103192;28;44096;-64
2020/12/02 05:22:24;;;;;;;;;;;;;;;;;;2107091;28;44258;-63
2020/12/02 05:23:25;;;;;;;;;;;;;;;;;;2107204;28;44215;-64
2020/12/02 05:24:26;;;;;;;;;;;;;;;;;;2107081;28;45735;-64
2020/12/02 05:25:29;;;;;;;;;;;;;;;;;;2108466;28;45711;-64
2020/12/02 05:26:31;;;;;;;;;;;;;;;;;;2107637;28;44733;-62
2020/12/02 05:27:34;;;;;;;;;;;;;;;;;;2107850;28;44416;-62
2020/12/02 05:28:41;;;;;;;;;;;;;;;;;;2107401;28;46028;-61
2020/12/02 05:30:01;;;;;;;;;;;;;;;;;;2107665;28;45758;-62
2020/12/02 05:31:11;;;;;;;;;;;;;;;;;;2107566;28;45790;-63
2020/12/02 05:32:18;;;;;;;;;;;;;;;;;;2107740;28;45872;-62
2020/12/02 05:33:20;;;;;;;;;;;;;;;;;;2106827;28;43999;-62
2020/12/02 05:34:30;;;;;;;;;;;;;;;;;;2106995;28;43862;-63
2020/12/02 05:35:32;;;;;;;;;;;;;;;;;;2107160;28;44588;-63
2020/12/02 05:36:39;;;;;;;;;;;;;;;;;;2107739;28;45382;-63
2020/12/02 05:37:43;;;;;;;;;;;;;;;;;;2107653;28;44575;-64
2020/12/02 05:38:50;;;;;;;;;;;;;;;;;;2106078;28;46069;-64
2020/12/02 05:39:54;;;;;;;;;;;;;;;;;;2107592;28;44779;-62
2020/12/02 05:40:55;;;;;;;;;;;;;;;;;;2107003;28;44856;-62
2020/12/02 05:41:56;;;;;;;;;;;;;;;;;;2107760;28;44574;-61
2020/12/02 05:43:06;;;;;;;;;;;;;;;;;;2106586;28;45962;-61
2020/12/02 05:44:18;;;;;;;;;;;;;;;;;;2105459;28;44766;-63
2020/12/02 05:45:22;;;;;;;;;;;;;;;;;;2106363;28;45751;-61
2020/12/02 05:46:32;;;;;;;;;;;;;;;;;;2107311;28;46267;-61
2020/12/02 05:47:33;;;;;;;;;;;;;;;;;;2106493;28;48012;-61
2020/12/02 05:48:36;;;;;;;;;;;;;;;;;;2107375;28;47021;-61
2020/12/02 05:49:43;;;;;;;;;;;;;;;;;;2107162;28;44837;-63
2020/12/02 05:50:45;;;;;;;;;;;;;;;;;;2105991;28;42980;-63
2020/12/02 05:51:46;;;;;;;;;;;;;;;;;;2106744;28;45661;-63
2020/12/02 05:52:49;;;;;;;;;;;;;;;;;;2106303;28;42523;-62
2020/12/02 05:53:52;;;;;;;;;;;;;;;;;;2105657;28;43133;-61
2020/12/02 05:55:01;;;;;;;;;;;;;;;;;;2107206;28;44494;-61
2020/12/02 05:56:04;;;;;;;;;;;;;;;;;;2106638;28;44267;-61
2020/12/02 05:57:06;;;;;;;;;;;;;;;;;;2107131;28;42846;-62
2020/12/02 05:58:12;;;;;;;;;;;;;;;;;;2106953;28;43304;-61
2020/12/02 05:59:17;;;;;;;;;;;;;;;;;;2107121;28;42980;-61
2020/12/02 06:00:18;;;;;;;;;;;;;;;;;;2106037;28;43149;-61
2020/12/02 06:01:20;;;;;;;;;;;;;;;;;;2107245;28;44637;-61
2020/12/02 06:02:22;;;;;;;;;;;;;;;;;;2106920;28;42816;-61
2020/12/02 06:03:41;;;;;;;;;;;;;;;;;;2106366;28;43044;-62
2020/12/02 06:04:42;;;;;;;;;;;;;;;;;;2098813;28;44523;-62
2020/12/02 06:05:43;;;;;;;;;;;;;;;;;;2098554;28;43302;-62
2020/12/02 06:06:54;;;;;;;;;;;;;;;;;;2098511;28;42297;-62
2020/12/02 06:07:58;;;;;;;;;;;;;;;;;;2098490;28;44308;-62
2020/12/02 06:09:00;;;;;;;;;;;;;;;;;;2098682;28;41841;-62
2020/12/02 06:10:01;;;;;;;;;;;;;;;;;;2098512;28;44211;-62
2020/12/02 06:11:22;;;;;;;;;;;;;;;;;;2110619;28;43096;-62
2020/12/02 06:12:38;;;;;;;;;;;;;;;;;;2109622;28;41496;-62
2020/12/02 06:13:41;;;;;;;;;;;;;;;;;;2114843;28;44410;-62
2020/12/02 06:14:42;;;;;;;;;;;;;;;;;;2115081;27;45593;-62
2020/12/02 06:15:43;;;;;;;;;;;;;;;;;;2114147;27;44086;-62
2020/12/02 06:16:46;;;;;;;;;;;;;;;;;;2114528;28;46077;-62
2020/12/02 06:17:48;;;;;;;;;;;;;;;;;;2115631;27;44268;-62
2020/12/02 06:18:49;;;;;;;;;;;;;;;;;;2114478;28;45257;-62
2020/12/02 06:19:50;;;;;;;;;;;;;;;;;;2114992;28;44053;-62
2020/12/02 06:20:51;;;;;;;;;;;;;;;;;;2114908;27;44403;-62
2020/12/02 06:21:59;;;;;;;;;;;;;;;;;;2115462;27;44138;-62
2020/12/02 06:23:04;;;;;;;;;;;;;;;;;;2115113;27;44371;-62
2020/12/02 06:24:05;;;;;;;;;;;;;;;;;;2115125;27;44085;-62
2020/12/02 06:25:14;;;;;;;;;;;;;;;;;;2114606;28;44297;-61
2020/12/02 06:26:31;;;;;;;;;;;;;;;;;;2114978;28;45367;-63
2020/12/02 06:27:32;;;;;;;;;;;;;;;;;;2114879;28;46690;-61
2020/12/02 06:28:33;;;;;;;;;;;;;;;;;;2114733;28;45468;-62
2020/12/02 06:29:35;;;;;;;;;;;;;;;;;;2114716;28;44082;-61
2020/12/02 06:30:36;;;;;;;;;;;;;;;;;;2114737;28;44102;-61
2020/12/02 06:31:38;;;;;;;;;;;;;;;;;;2115089;27;44376;-62
2020/12/02 06:32:39;;;;;;;;;;;;;;;;;;2115373;27;45478;-62
2020/12/02 06:33:41;;;;;;;;;;;;;;;;;;2114517;27;45318;-62
2020/12/02 06:34:42;;;;;;;;;;;;;;;;;;2115203;27;45591;-62
2020/12/02 06:35:43;;;;;;;;;;;;;;;;;;2115049;27;44843;-62
2020/12/02 06:36:59;;;;;;;;;;;;;;;;;;2100214;28;44794;-62
2020/12/02 06:38:09;;;;;;;;;;;;;;;;;;2098061;28;46384;-62
2020/12/02 06:39:10;;;;;;;;;;;;;;;;;;2098201;28;45852;-62
2020/12/02 06:40:13;;;;;;;;;;;;;;;;;;2098475;28;45838;-62
2020/12/02 06:41:31;;;;;;;;;;;;;;;;;;2098010;28;46177;-62
2020/12/02 06:42:42;;;;;;;;;;;;;;;;;;2098612;28;46687;-62
2020/12/02 06:44:12;;;;;;;;;;;;;;;;;;2097997;28;44551;-62
2020/12/02 06:45:16;;;;;;;;;;;;;;;;;;2088053;28;45734;-62
2020/12/02 06:46:19;;;;;;;;;;;;;;;;;;2088054;28;46160;-62
2020/12/02 06:47:23;;;;;;;;;;;;;;;;;;2098361;28;45983;-62
2020/12/02 06:48:29;;;;;;;;;;;;;;;;;;2098358;28;44557;-62
2020/12/02 06:49:33;;;;;;;;;;;;;;;;;;2098321;28;44742;-62
2020/12/02 06:50:35;;;;;;;;;;;;;;;;;;2098230;28;44560;-62
2020/12/02 06:51:36;;;;;;;;;;;;;;;;;;2098054;28;44758;-62
2020/12/02 06:52:38;;;;;;;;;;;;;;;;;;2098276;28;44483;-62
2020/12/02 06:53:39;;;;;;;;;;;;;;;;;;2097910;28;45145;-62
2020/12/02 06:54:40;;;;;;;;;;;;;;;;;;2098357;28;44559;-62
2020/12/02 06:55:44;;;;;;;;;;;;;;;;;;2098202;28;45708;-62
2020/12/02 06:56:46;;;;;;;;;;;;;;;;;;2098083;28;44826;-62
2020/12/02 06:57:53;;;;;;;;;;;;;;;;;;2097575;28;46058;-62
2020/12/02 06:59:04;;;;;;;;;;;;;;;;;;2098410;28;44834;-62
2020/12/02 07:00:07;;;;;;;;;;;;;;;;;;2098013;28;44541;-62
2020/12/02 07:01:16;;;;;;;;;;;;;;;;;;2098369;28;43168;-62
2020/12/02 07:02:35;;;;;;;;;;;;;;;;;;2097545;28;42861;-62
2020/12/02 07:03:41;;;;;;;;;;;;;;;;;;2098010;28;43262;-62
2020/12/02 07:04:42;;;;;;;;;;;;;;;;;;2097933;28;44486;-62
2020/12/02 07:05:44;;;;;;;;;;;;;;;;;;2098043;28;44571;-62
2020/12/02 07:06:55;;;;;;;;;;;;;;;;;;2097953;28;44342;-62
2020/12/02 07:08:02;;;;;;;;;;;;;;;;;;2098207;28;45177;-62
2020/12/02 07:09:10;;;;;;;;;;;;;;;;;;2098094;28;43291;-62
2020/12/02 07:10:16;;;;;;;;;;;;;;;;;;2098162;28;44271;-62
2020/12/02 07:11:19;;;;;;;;;;;;;;;;;;2098089;28;44837;-62
2020/12/02 07:12:22;;;;;;;;;;;;;;;;;;2098186;28;43148;-63
2020/12/02 07:13:24;;;;;;;;;;;;;;;;;;2097873;28;45517;-62
2020/12/02 07:14:33;;;;;;;;;;;;;;;;;;2097958;28;45127;-62
2020/12/02 07:15:34;;;;;;;;;;;;;;;;;;2098429;28;43105;-62
2020/12/02 07:16:35;;;;;;;;;;;;;;;;;;2097940;28;42308;-63